Home > Products > Valid Products > TAF

000
FTUS43 KICT 120537
TAFRSL
TAF
KRSL 120537Z 1206/1306 25007KT P6SM SCT250
     FM121100 35010KT P6SM BKN015
     FM122000 03010KT P6SM SCT025
     FM130000 07007KT P6SM SCT015=



000
FTUS43 KICT 120537
TAFHUT
TAF
KHUT 120537Z 1206/1306 VRB05KT P6SM SCT250
     FM121000 32007KT P6SM SCT250
     FM121300 02010KT P6SM SCT015
     FM121700 03012KT P6SM SCT250
     FM130400 07007KT P6SM SCT250=



000
FTUS43 KICT 120537
TAFICT
TAF
KICT 120537Z 1206/1306 VRB05KT P6SM SCT250
     FM120700 25006KT P6SM SCT250
     FM120900 30007KT P6SM SCT250
     FM121200 35010KT P6SM SCT250
     FM121900 03012KT P6SM SCT250
     FM130000 06007KT P6SM SCT250=



000
FTUS43 KICT 120537
TAFSLN
TAF
KSLN 120537Z 1206/1306 24005KT P6SM SCT250
     FM120800 31010KT P6SM SCT250
     FM121000 33012KT P6SM BKN015
     FM121700 03008KT P6SM SCT025
     FM130000 06005KT P6SM SCT015=



000
FTUS43 KICT 120537
TAFCNU
TAF
KCNU 120537Z 1206/1306 VRB05KT P6SM SCT250
     FM121100 30008KT P6SM SCT250
     FM121500 36012G18KT P6SM SCT250
     FM130000 03008KT P6SM SCT250=



000
FTUS43 KICT 112322
TAFICT
TAF
KICT 112322Z 1200/1224 VRB05KT P6SM SCT250
     FM120700 25006KT P6SM SCT250
     FM120900 30007KT P6SM SCT250
     FM121200 35010KT P6SM SCT250
     FM121900 03007KT P6SM SCT250=



000
FTUS43 KICT 112322
TAFHUT
TAF
KHUT 112322Z 1200/1224 VRB05KT P6SM SCT250
     FM120500 26005KT P6SM SCT250
     FM121000 32007KT P6SM SCT250
     FM121600 01010KT P6SM SCT250=



000
FTUS43 KICT 112322
TAFRSL
TAF
KRSL 112322Z 1200/1224 18007KT P6SM SCT250
     FM120500 30008KT P6SM SCT250
     FM121100 35010KT P6SM SCT015
     FM121800 03010KT P6SM SCT015=



000
FTUS43 KICT 112322
TAFSLN
TAF
KSLN 112322Z 1200/1224 19005KT P6SM SCT250
     FM120500 26005KT P6SM SCT250
     FM120800 31010KT P6SM SCT250
     FM121000 33012KT P6SM SCT015
     FM121800 03008KT P6SM SCT015=



000
FTUS43 KICT 112322
TAFCNU
TAF
KCNU 112322Z 1200/1224 VRB05KT P6SM SCT250
     FM120900 24006KT P6SM SCT250
     FM121100 30008KT P6SM SCT250
     FM121500 34010KT P6SM SCT250
     FM121800 03007KT P6SM SCT250=



000
FTUS43 KICT 112322
TAFCNU
TAF
KCNU 112322Z 1200/1224 VRB05KT P6SM SCT250
     FM120900 24006KT P6SM SCT250
     FM121100 30008KT P6SM SCT250
     FM121500 34010KT P6SM SCT250
     FM121800 03007KT P6SM SCT250=



000
FTUS43 KICT 112322
TAFICT
TAF
KICT 112322Z 1200/1224 VRB05KT P6SM SCT250
     FM120700 25006KT P6SM SCT250
     FM120900 30007KT P6SM SCT250
     FM121200 35010KT P6SM SCT250
     FM121900 03007KT P6SM SCT250=



000
FTUS43 KICT 112322
TAFHUT
TAF
KHUT 112322Z 1200/1224 VRB05KT P6SM SCT250
     FM120500 26005KT P6SM SCT250
     FM121000 32007KT P6SM SCT250
     FM121600 01010KT P6SM SCT250=



000
FTUS43 KICT 112322
TAFRSL
TAF
KRSL 112322Z 1200/1224 18007KT P6SM SCT250
     FM120500 30008KT P6SM SCT250
     FM121100 35010KT P6SM SCT015
     FM121800 03010KT P6SM SCT015=



000
FTUS43 KICT 112322
TAFSLN
TAF
KSLN 112322Z 1200/1224 19005KT P6SM SCT250
     FM120500 26005KT P6SM SCT250
     FM120800 31010KT P6SM SCT250
     FM121000 33012KT P6SM SCT015
     FM121800 03008KT P6SM SCT015=



000
FTUS43 KICT 112300 AAC
TAFRSL
TAF AMD
KRSL 112300Z 1123/1218 16008KT P6SM SCT250
     FM120000 24006KT P6SM SCT250
     FM120500 29008KT P6SM SCT150
     FM121100 34011KT P6SM SCT020=



000
FTUS43 KICT 112300 AAC
TAFRSL
TAF AMD
KRSL 112300Z 1123/1218 16008KT P6SM SCT250
     FM120000 24006KT P6SM SCT250
     FM120500 29008KT P6SM SCT150
     FM121100 34011KT P6SM SCT020=



000
FTUS43 KICT 112258 AAB
TAFCNU
TAF AMD
KCNU 112258Z 1123/1218 VRB05KT P6SM SCT250
     FM120900 24006KT P6SM SCT250
     FM121100 30008KT P6SM SCT250
     FM121500 35015G21KT P6SM SCT120=



000
FTUS43 KICT 112258 AAB
TAFCNU
TAF AMD
KCNU 112258Z 1123/1218 VRB05KT P6SM SCT250
     FM120900 24006KT P6SM SCT250
     FM121100 30008KT P6SM SCT250
     FM121500 35015G21KT P6SM SCT120=



000
FTUS43 KICT 112257 AAC
TAFSLN
TAF AMD
KSLN 112257Z 1123/1218 VRB05KT P6SM SCT250
     FM120400 24005KT P6SM SCT250
     FM120900 30011KT P6SM SCT020
     FM121100 34012KT P6SM SCT025=



000
FTUS43 KICT 112257 AAC
TAFSLN
TAF AMD
KSLN 112257Z 1123/1218 VRB05KT P6SM SCT250
     FM120400 24005KT P6SM SCT250
     FM120900 30011KT P6SM SCT020
     FM121100 34012KT P6SM SCT025=



000
FTUS43 KICT 112256 AAE
TAFICT
TAF AMD
KICT 112256Z 1123/1218 VRB05KT P6SM SCT250
     FM120800 27006KT P6SM SCT250
     FM121100 35012KT P6SM SCT250=



000
FTUS43 KICT 112255 AAD
TAFHUT
TAF AMD
KHUT 112255Z 1123/1218 17005KT P6SM SKC
     FM120400 22005KT P6SM SCT250
     FM120700 27007KT P6SM SCT250
     FM121100 34012KT P6SM SCT200=



000
FTUS43 KICT 111728 AAC
TAFHUT
TAF AMD
KHUT 111728Z 1117/1218 06005KT P6SM SKC
     FM112000 16005KT P6SM SKC
     FM120400 22005KT P6SM SCT250
     FM120700 27007KT P6SM SCT250
     FM121100 34012KT P6SM SCT200=



000
FTUS43 KICT 111728 AAB
TAFSLN
TAF AMD
KSLN 111728Z 1117/1218 09004KT P6SM BKN008
     FM112000 16005KT P6SM SCT020
     FM120400 24005KT P6SM SCT250
     FM120900 30011KT P6SM SCT020
     FM121100 34012KT P6SM SCT025=



000
FTUS43 KICT 111728 AAB
TAFRSL
TAF AMD
KRSL 111728Z 1117/1218 06005KT P6SM SCT012
      TEMPO 1118/1120 BKN008
     FM112000 19006KT P6SM SCT020
     FM120000 24006KT P6SM SCT250
     FM120500 29008KT P6SM SCT150
     FM121100 34011KT P6SM SCT020=



000
FTUS43 KICT 111728 AAA
TAFCNU
TAF AMD
KCNU 111728Z 1117/1218 05008KT P6SM SKC
     FM112200 08004KT P6SM SKC
     FM120900 24006KT P6SM SCT250
     FM121100 30008KT P6SM SCT250
     FM121500 35015G21KT P6SM SCT120=



000
FTUS43 KICT 111728 AAC
TAFICT
TAF AMD
KICT 111728Z 1117/1218 05006KT P6SM SKC
     FM112000 12004KT P6SM SKC
     FM120000 17004KT P6SM SKC
     FM120800 27006KT P6SM SCT250
     FM121100 35012KT P6SM SCT250=



000
FTUS43 KICT 111728 AAA
TAFCNU
TAF AMD
KCNU 111728Z 1117/1218 05008KT P6SM SKC
     FM112200 08004KT P6SM SKC
     FM120900 24006KT P6SM SCT250
     FM121100 30008KT P6SM SCT250
     FM121500 35015G21KT P6SM SCT120=



000
FTUS43 KICT 111728 AAB
TAFRSL
TAF AMD
KRSL 111728Z 1117/1218 06005KT P6SM SCT012
      TEMPO 1118/1120 BKN008
     FM112000 19006KT P6SM SCT020
     FM120000 24006KT P6SM SCT250
     FM120500 29008KT P6SM SCT150
     FM121100 34011KT P6SM SCT020=



000
FTUS43 KICT 111728 AAC
TAFICT
TAF AMD
KICT 111728Z 1117/1218 05006KT P6SM SKC
     FM112000 12004KT P6SM SKC
     FM120000 17004KT P6SM SKC
     FM120800 27006KT P6SM SCT250
     FM121100 35012KT P6SM SCT250=



000
FTUS43 KICT 111728 AAC
TAFHUT
TAF AMD
KHUT 111728Z 1117/1218 06005KT P6SM SKC
     FM112000 16005KT P6SM SKC
     FM120400 22005KT P6SM SCT250
     FM120700 27007KT P6SM SCT250
     FM121100 34012KT P6SM SCT200=



000
FTUS43 KICT 111728 AAB
TAFSLN
TAF AMD
KSLN 111728Z 1117/1218 09004KT P6SM BKN008
     FM112000 16005KT P6SM SCT020
     FM120400 24005KT P6SM SCT250
     FM120900 30011KT P6SM SCT020
     FM121100 34012KT P6SM SCT025=



000
FTUS43 KICT 111643 AAB
TAFHUT
TAF AMD
KHUT 111643Z 1117/1212 04006KT P6SM SCT010
     FM111900 16005KT P6SM SCT250
     FM120700 22006KT P6SM SCT250=



000
FTUS43 KICT 111338 AAA
TAFRSL
TAF AMD
KRSL 111338Z 1114/1212 03009KT P6SM BKN008
     FM111800 11005KT P6SM SCT008 BKN015
     FM112000 16005KT P6SM SCT250
     FM120400 22007KT P6SM SCT200
     FM120800 27007KT P6SM SCT200=



000
FTUS43 KICT 111337 AAA
TAFSLN
TAF AMD
KSLN 111337Z 1114/1212 02009KT P6SM OVC008
     FM111800 07004KT P6SM BKN015
     FM112000 11004KT P6SM SCT015
     FM112100 19005KT P6SM SCT250
     FM120800 25005KT P6SM SCT250=



000
FTUS43 KICT 111335 AAB
TAFICT
TAF AMD
KICT 111335Z 1114/1212 02012KT P6SM SKC
     FM111500 03009KT P6SM SCT009
     FM111900 07005KT P6SM SCT250
     FM112100 14004KT P6SM SCT250
     FM120700 20006KT P6SM SCT250=



000
FTUS43 KICT 111335 AAB
TAFICT
TAF AMD
KICT 111335Z 1114/1212 02012KT P6SM SKC
     FM111500 03009KT P6SM SCT009
     FM111900 07005KT P6SM SCT250
     FM112100 14004KT P6SM SCT250
     FM120700 20006KT P6SM SCT250=



000
FTUS43 KICT 111334 AAA
TAFHUT
TAF AMD
KHUT 111334Z 1114/1212 04007KT P6SM BKN008
     FM111700 09004KT P6SM SCT010
     FM111900 16005KT P6SM SCT250
     FM120700 22006KT P6SM SCT250=



000
FTUS43 KICT 111334 AAA
TAFHUT
TAF AMD
KHUT 111334Z 1114/1212 04007KT P6SM BKN008
     FM111700 09004KT P6SM SCT010
     FM111900 16005KT P6SM SCT250
     FM120700 22006KT P6SM SCT250=



000
FTUS43 KICT 111131
TAFRSL
TAF
KRSL 111131Z 1112/1212 02009KT P6SM SCT008
     FM111300 03008KT P6SM BKN008
     FM111700 11005KT P6SM BKN015
     FM111900 16005KT P6SM SCT250
     FM120400 22007KT P6SM SCT200
     FM120800 27007KT P6SM SCT200=



000
FTUS43 KICT 111131
TAFICT
TAF
KICT 111131Z 1112/1212 01008KT P6SM SKC
     FM111500 03009KT P6SM SCT009
     FM111900 07005KT P6SM SCT250
     FM112100 14004KT P6SM SCT250
     FM120700 20006KT P6SM SCT250=



000
FTUS43 KICT 111131
TAFHUT
TAF
KHUT 111131Z 1112/1212 02009KT P6SM SKC
     FM111400 05005KT P6SM SCT009 BKN015
     FM111800 09004KT P6SM SCT015
     FM112000 16005KT P6SM SCT250
     FM120700 22006KT P6SM SCT250=



000
FTUS43 KICT 111131
TAFICT
TAF
KICT 111131Z 1112/1212 01008KT P6SM SKC
     FM111500 03009KT P6SM SCT009
     FM111900 07005KT P6SM SCT250
     FM112100 14004KT P6SM SCT250
     FM120700 20006KT P6SM SCT250=



000
FTUS43 KICT 111131
TAFSLN
TAF
KSLN 111131Z 1112/1212 02008KT P6SM OVC008
     FM111700 07004KT P6SM BKN015
     FM111900 11004KT P6SM SCT015
     FM112100 19005KT P6SM SCT250
     FM120800 25005KT P6SM SCT250=



000
FTUS43 KICT 111131
TAFHUT
TAF
KHUT 111131Z 1112/1212 02009KT P6SM SKC
     FM111400 05005KT P6SM SCT009 BKN015
     FM111800 09004KT P6SM SCT015
     FM112000 16005KT P6SM SCT250
     FM120700 22006KT P6SM SCT250=



000
FTUS43 KICT 111131
TAFSLN
TAF
KSLN 111131Z 1112/1212 02008KT P6SM OVC008
     FM111700 07004KT P6SM BKN015
     FM111900 11004KT P6SM SCT015
     FM112100 19005KT P6SM SCT250
     FM120800 25005KT P6SM SCT250=



000
FTUS43 KICT 111131
TAFCNU
TAF
KCNU 111131Z 1112/1212 03013KT P6SM SKC
     FM111500 03010KT P6SM SCT015
     FM111900 05007KT P6SM SCT250
     FM120000 VRB03KT P6SM SCT200=



000
FTUS43 KICT 111131
TAFCNU
TAF
KCNU 111131Z 1112/1212 03013KT P6SM SKC
     FM111500 03010KT P6SM SCT015
     FM111900 05007KT P6SM SCT250
     FM120000 VRB03KT P6SM SCT200=



000
FTUS43 KICT 111131
TAFRSL
TAF
KRSL 111131Z 1112/1212 02009KT P6SM SCT008
     FM111300 03008KT P6SM BKN008
     FM111700 11005KT P6SM BKN015
     FM111900 16005KT P6SM SCT250
     FM120400 22007KT P6SM SCT200
     FM120800 27007KT P6SM SCT200=



000
FTUS43 KICT 110934 AAA
TAFRSL
TAF AMD
KRSL 110934Z 1110/1206 02008KT P6SM SKC
     FM111200 01008KT P6SM BKN008
     FM111700 01006KT P6SM SCT008 BKN015
     FM111900 19007KT P6SM SCT015
     FM112100 19007KT P6SM SCT250
     FM120200 33012KT P6SM SCT250=



000
FTUS43 KICT 110905 AAB
TAFSLN
TAF AMD
KSLN 110905Z 1109/1206 01008KT P6SM SKC
     FM111100 01008KT P6SM BKN008
     FM111600 05006KT P6SM SCT008 BKN015
     FM111800 VRB05KT P6SM SCT020
     FM112000 19005KT P6SM SCT250
     FM120400 31012KT P6SM SCT250=



000
FTUS43 KICT 110901 AAA
TAFSLN
TAF AMD
KSLN 110901Z 1109/1206 01008KT P6SM SKC
     FM111000 01008KT P6SM BKN008
     FM111600 05006KT P6SM SCT008 BKN015
     FM111800 VRB05KT P6SM SCT020
     FM112000 19005KT P6SM SCT250
     FM120400 31012KT P6SM SCT250=



000
FTUS43 KICT 110539
TAFRSL
TAF
KRSL 110539Z 1106/1206 02008KT P6SM BKN250
     FM111200 01008KT P6SM BKN015
     FM111600 01006KT P6SM BKN025
     FM111800 VRB05KT P6SM SCT035
     FM112000 19007KT P6SM SCT250
     FM120200 33012KT P6SM SCT250=



000
FTUS43 KICT 110539
TAFICT
TAF
KICT 110539Z 1106/1206 01007KT P6SM SCT250
     FM111400 03010KT P6SM SCT015
     FM111900 VRB05KT P6SM SCT250
     FM112100 13005KT P6SM SCT250
     FM120000 18005KT P6SM SCT250=



000
FTUS43 KICT 110539
TAFHUT
TAF
KHUT 110539Z 1106/1206 VRB05KT P6SM SCT250
     FM111300 03010KT P6SM SCT015
     FM111900 VRB04KT P6SM SCT250
     FM120500 31010KT P6SM SCT250=



000
FTUS43 KICT 110539
TAFSLN
TAF
KSLN 110539Z 1106/1206 36007KT P6SM SCT250
     FM111000 01008KT P6SM BKN015
     FM111600 01006KT P6SM BKN025
     FM111800 VRB05KT P6SM SCT035
     FM112100 19005KT P6SM SCT250
     FM120400 31012KT P6SM SCT250=



000
FTUS43 KICT 110539
TAFCNU
TAF
KCNU 110539Z 1106/1206 05007KT P6SM FEW250
     FM111200 04007KT P6SM BKN015
     FM111700 07007KT P6SM SCT250
     FM120000 VRB05KT P6SM SKC=



000
FTUS43 KICT 110539
TAFRSL
TAF
KRSL 110539Z 1106/1206 02008KT P6SM BKN250
     FM111200 01008KT P6SM BKN015
     FM111600 01006KT P6SM BKN025
     FM111800 VRB05KT P6SM SCT035
     FM112000 19007KT P6SM SCT250
     FM120200 33012KT P6SM SCT250=



000
FTUS43 KICT 110539
TAFICT
TAF
KICT 110539Z 1106/1206 01007KT P6SM SCT250
     FM111400 03010KT P6SM SCT015
     FM111900 VRB05KT P6SM SCT250
     FM112100 13005KT P6SM SCT250
     FM120000 18005KT P6SM SCT250=



000
FTUS43 KICT 110539
TAFSLN
TAF
KSLN 110539Z 1106/1206 36007KT P6SM SCT250
     FM111000 01008KT P6SM BKN015
     FM111600 01006KT P6SM BKN025
     FM111800 VRB05KT P6SM SCT035
     FM112100 19005KT P6SM SCT250
     FM120400 31012KT P6SM SCT250=



000
FTUS43 KICT 110539
TAFHUT
TAF
KHUT 110539Z 1106/1206 VRB05KT P6SM SCT250
     FM111300 03010KT P6SM SCT015
     FM111900 VRB04KT P6SM SCT250
     FM120500 31010KT P6SM SCT250=



000
FTUS43 KICT 110539
TAFCNU
TAF
KCNU 110539Z 1106/1206 05007KT P6SM FEW250
     FM111200 04007KT P6SM BKN015
     FM111700 07007KT P6SM SCT250
     FM120000 VRB05KT P6SM SKC=



000
FTUS43 KICT 102324
TAFRSL
TAF
KRSL 102324Z 1100/1124 31008KT P6SM SKC
     FM111100 01008KT P6SM BKN015
     FM111500 01006KT P6SM BKN025
     FM111700 VRB05KT P6SM SCT035
     FM112000 19007KT P6SM SCT250=



000
FTUS43 KICT 102324
TAFRSL
TAF
KRSL 102324Z 1100/1124 31008KT P6SM SKC
     FM111100 01008KT P6SM BKN015
     FM111500 01006KT P6SM BKN025
     FM111700 VRB05KT P6SM SCT035
     FM112000 19007KT P6SM SCT250=



000
FTUS43 KICT 102324
TAFSLN
TAF
KSLN 102324Z 1100/1124 31008KT P6SM SKC
     FM111000 01008KT P6SM BKN015
     FM111500 01006KT P6SM BKN025
     FM111700 VRB05KT P6SM SCT035
     FM112100 19005KT P6SM SCT250=



000
FTUS43 KICT 102324
TAFHUT
TAF
KHUT 102324Z 1100/1124 30010KT P6SM SKC
     FM110200 33007KT P6SM FEW250
     FM111300 03010KT P6SM SCT015
     FM111900 VRB04KT P6SM SCT250=



000
FTUS43 KICT 102324
TAFCNU
TAF
KCNU 102324Z 1100/1124 VRB05KT P6SM SKC
     FM110500 34007KT P6SM FEW250
     FM111200 04007KT P6SM SCT015
     FM111700 06007KT P6SM SCT250=



000
FTUS43 KICT 102324
TAFICT
TAF
KICT 102324Z 1100/1124 30007KT P6SM SKC
     FM111400 03010KT P6SM SCT015
     FM111900 VRB05KT P6SM SCT250
     FM112100 15007KT P6SM SCT250=



000
FTUS43 KICT 102324
TAFSLN
TAF
KSLN 102324Z 1100/1124 31008KT P6SM SKC
     FM111000 01008KT P6SM BKN015
     FM111500 01006KT P6SM BKN025
     FM111700 VRB05KT P6SM SCT035
     FM112100 19005KT P6SM SCT250=



000
FTUS43 KICT 102324
TAFHUT
TAF
KHUT 102324Z 1100/1124 30010KT P6SM SKC
     FM110200 33007KT P6SM FEW250
     FM111300 03010KT P6SM SCT015
     FM111900 VRB04KT P6SM SCT250=



000
FTUS43 KICT 102324
TAFCNU
TAF
KCNU 102324Z 1100/1124 VRB05KT P6SM SKC
     FM110500 34007KT P6SM FEW250
     FM111200 04007KT P6SM SCT015
     FM111700 06007KT P6SM SCT250=



000
FTUS43 KICT 102324
TAFICT
TAF
KICT 102324Z 1100/1124 30007KT P6SM SKC
     FM111400 03010KT P6SM SCT015
     FM111900 VRB05KT P6SM SCT250
     FM112100 15007KT P6SM SCT250=



000
FTUS43 KICT 102010 AAA
TAFHUT
TAF AMD
KHUT 102010Z 1020/1118 29014G23KT P6SM SKC
     FM110000 35009KT P6SM SKC
     FM110900 36010KT P6SM SCT010=



000
FTUS43 KICT 102010 AAA
TAFHUT
TAF AMD
KHUT 102010Z 1020/1118 29014G23KT P6SM SKC
     FM110000 35009KT P6SM SKC
     FM110900 36010KT P6SM SCT010=



000
FTUS43 KICT 102009 AAA
TAFCNU
TAF AMD
KCNU 102009Z 1020/1118 21015KT P6SM SKC
     FM102300 23011KT P6SM SKC
     FM110200 VRB05KT P6SM SKC
     FM110900 01009KT P6SM FEW010=



000
FTUS43 KICT 102008 AAA
TAFSLN
TAF AMD
KSLN 102008Z 1020/1118 29013G21KT P6SM SKC
     FM110000 34008KT P6SM SKC
     FM110900 36011KT P6SM FEW010 SCT015=



000
FTUS43 KICT 101720
TAFRSL
TAF
KRSL 101720Z 1018/1118 29015G23KT P6SM SKC
     FM110000 33010KT P6SM SKC
     FM110900 36011KT P6SM FEW009 SCT015
     FM111600 04006KT P6SM FEW015=



000
FTUS43 KICT 101720
TAFICT
TAF
KICT 101720Z 1018/1118 23014G23KT P6SM SKC
     FM102100 27014G21KT P6SM SKC
     FM110000 34010KT P6SM SKC
     FM111500 05008KT P6SM FEW015=



000
FTUS43 KICT 101720
TAFSLN
TAF
KSLN 101720Z 1018/1118 26014G20KT P6SM SKC
     FM102200 30013KT P6SM SKC
     FM110000 34008KT P6SM SKC
     FM110900 36011KT P6SM FEW010 SCT015=



000
FTUS43 KICT 101720
TAFHUT
TAF
KHUT 101720Z 1018/1118 25013KT P6SM SKC
     FM102100 30015G23KT P6SM SKC
     FM110000 35009KT P6SM SKC
     FM110900 36010KT P6SM SCT010=



000
FTUS43 KICT 101720
TAFCNU
TAF
KCNU 101720Z 1018/1118 21017G24KT P6SM SKC
     FM102300 23011KT P6SM SKC
     FM110200 VRB05KT P6SM SKC
     FM110900 01009KT P6SM FEW010=



000
FTUS43 KICT 101603 AAA
TAFSLN
TAF AMD
KSLN 101603Z 1016/1112 22013KT P6SM SKC
     FM101800 27015G23KT P6SM SKC
     FM102300 33011KT P6SM SKC
     FM110900 36011KT P6SM SCT015=



000
FTUS43 KICT 101602 AAB
TAFICT
TAF AMD
KICT 101602Z 1016/1112 21013KT P6SM SKC
     FM101700 25014G23KT P6SM SKC
     FM110000 33010KT P6SM SKC=



000
FTUS43 KICT 101557 AAA
TAFHUT
TAF AMD
KHUT 101557Z 1016/1112 21012KT P6SM SKC
     FM101700 25013KT P6SM SKC
     FM102100 30016G24KT P6SM SKC
     FM110000 32009KT P6SM SKC
     FM110900 36013KT P6SM SCT015=



000
FTUS43 KICT 101555 AAA
TAFCNU
TAF AMD
KCNU 101555Z 1016/1112 21015G24KT P6SM SKC
     FM102300 28009KT P6SM SKC
     FM110300 36007KT P6SM SKC=



000
FTUS43 KICT 101130
TAFICT
TAF
KICT 101130Z 1012/1112 18008KT P6SM SKC
     FM101600 22014KT P6SM SKC
     FM102000 27015G23KT P6SM SKC
     FM110000 33010KT P6SM SKC=



000
FTUS43 KICT 101130
TAFHUT
TAF
KHUT 101130Z 1012/1112 18008KT P6SM SKC
     FM101700 25013KT P6SM SKC
     FM102100 30016G24KT P6SM SKC
     FM110000 32009KT P6SM SKC
     FM110900 36013KT P6SM SCT015=



000
FTUS43 KICT 101130
TAFCNU
TAF
KCNU 101130Z 1012/1112 19005KT P6SM BKN090
     FM101400 19013KT P6SM SCT090
     FM101700 20016G23KT P6SM SKC
     FM102300 28009KT P6SM SKC
     FM110300 36007KT P6SM SKC=



000
FTUS43 KICT 101130
TAFICT
TAF
KICT 101130Z 1012/1112 18008KT P6SM SKC
     FM101600 22014KT P6SM SKC
     FM102000 27015G23KT P6SM SKC
     FM110000 33010KT P6SM SKC=



000
FTUS43 KICT 101130
TAFRSL
TAF
KRSL 101130Z 1012/1112 24010KT P6SM SKC
     FM101800 29017G24KT P6SM SKC
     FM110000 32011KT P6SM SKC
     FM110900 36011KT P6SM FEW009 SCT015=



000
FTUS43 KICT 101130
TAFHUT
TAF
KHUT 101130Z 1012/1112 18008KT P6SM SKC
     FM101700 25013KT P6SM SKC
     FM102100 30016G24KT P6SM SKC
     FM110000 32009KT P6SM SKC
     FM110900 36013KT P6SM SCT015=



000
FTUS43 KICT 101130
TAFSLN
TAF
KSLN 101130Z 1012/1112 18008KT P6SM SKC
     FM101600 24012KT P6SM SKC
     FM101900 28015G23KT P6SM SKC
     FM102300 33011KT P6SM SKC
     FM110900 36011KT P6SM SCT015=



000
FTUS43 KICT 101130
TAFCNU
TAF
KCNU 101130Z 1012/1112 19005KT P6SM BKN090
     FM101400 19013KT P6SM SCT090
     FM101700 20016G23KT P6SM SKC
     FM102300 28009KT P6SM SKC
     FM110300 36007KT P6SM SKC=



000
FTUS43 KICT 101130
TAFRSL
TAF
KRSL 101130Z 1012/1112 24010KT P6SM SKC
     FM101800 29017G24KT P6SM SKC
     FM110000 32011KT P6SM SKC
     FM110900 36011KT P6SM FEW009 SCT015=



000
FTUS43 KICT 101130
TAFSLN
TAF
KSLN 101130Z 1012/1112 18008KT P6SM SKC
     FM101600 24012KT P6SM SKC
     FM101900 28015G23KT P6SM SKC
     FM102300 33011KT P6SM SKC
     FM110900 36011KT P6SM SCT015=



000
FTUS43 KICT 100523
TAFRSL
TAF
KRSL 100523Z 1006/1106 22007KT P6SM BKN070
     FM101000 26009KT P6SM SKC
     FM101800 28016KT P6SM SKC
     FM110100 33009KT P6SM SKC=



000
FTUS43 KICT 100523
TAFCNU
TAF
KCNU 100523Z 1006/1106 VRB05KT P6SM BKN070
     FM101400 19011KT P6SM SCT060
     FM101700 22017KT P6SM SKC
     FM110000 30007KT P6SM SKC=



000
FTUS43 KICT 100523
TAFICT
TAF
KICT 100523Z 1006/1106 VRB05KT P6SM BKN070
     FM101200 20008KT P6SM SCT080
     FM101800 26014KT P6SM SKC
     FM110000 32008KT P6SM FEW250=



000
FTUS43 KICT 100523
TAFSLN
TAF
KSLN 100523Z 1006/1106 VRB04KT P6SM OVC070
     FM100900 20007KT P6SM BKN070
     FM101800 28015KT P6SM SKC
     FM110100 32008KT P6SM SKC=



000
FTUS43 KICT 100523
TAFHUT
TAF
KHUT 100523Z 1006/1106 VRB05KT P6SM BKN070
     FM100900 21008KT P6SM BKN080
     FM101800 27015KT P6SM SKC
     FM110000 32008KT P6SM SKC=



000
FTUS43 KICT 092331
TAFCNU
TAF
KCNU 092331Z 1000/1024 33012KT P6SM SKC
     FM100300 31005KT P6SM SCT250
     FM100800 VRB03KT P6SM BKN060
     FM101400 19012KT P6SM SCT060
     FM101700 22017KT P6SM SKC=



000
FTUS43 KICT 092331
TAFICT
TAF
KICT 092331Z 1000/1024 35010KT P6SM OVC070
     FM100300 VRB04KT P6SM BKN070
     FM101200 20009KT P6SM SCT080
     FM101800 25013KT P6SM SKC=



000
FTUS43 KICT 092331
TAFHUT
TAF
KHUT 092331Z 1000/1024 36010KT P6SM OVC070
     FM100200 VRB05KT P6SM OVC070
     FM100900 21007KT P6SM SCT080
     FM101800 26017KT P6SM SKC=



000
FTUS43 KICT 092331
TAFSLN
TAF
KSLN 092331Z 1000/1024 36010KT P6SM SCT070
     FM100200 VRB05KT P6SM OVC060
     FM101100 21007KT P6SM SCT100
     FM101800 27015KT P6SM SKC=



000
FTUS43 KICT 092331
TAFRSL
TAF
KRSL 092331Z 1000/1024 05005KT P6SM OVC050
     FM100100 VRB04KT P6SM OVC050
     FM100600 20006KT P6SM BKN070
     FM101100 26007KT P6SM SKC
     FM101800 28016KT P6SM SKC=



000
FTUS43 KICT 092331
TAFSLN
TAF
KSLN 092331Z 1000/1024 36010KT P6SM SCT070
     FM100200 VRB05KT P6SM OVC060
     FM101100 21007KT P6SM SCT100
     FM101800 27015KT P6SM SKC=



000
FTUS43 KICT 092331
TAFRSL
TAF
KRSL 092331Z 1000/1024 05005KT P6SM OVC050
     FM100100 VRB04KT P6SM OVC050
     FM100600 20006KT P6SM BKN070
     FM101100 26007KT P6SM SKC
     FM101800 28016KT P6SM SKC=



000
FTUS43 KICT 092331
TAFICT
TAF
KICT 092331Z 1000/1024 35010KT P6SM OVC070
     FM100300 VRB04KT P6SM BKN070
     FM101200 20009KT P6SM SCT080
     FM101800 25013KT P6SM SKC=



000
FTUS43 KICT 092331
TAFHUT
TAF
KHUT 092331Z 1000/1024 36010KT P6SM OVC070
     FM100200 VRB05KT P6SM OVC070
     FM100900 21007KT P6SM SCT080
     FM101800 26017KT P6SM SKC=



000
FTUS43 KICT 092331
TAFCNU
TAF
KCNU 092331Z 1000/1024 33012KT P6SM SKC
     FM100300 31005KT P6SM SCT250
     FM100800 VRB03KT P6SM BKN060
     FM101400 19012KT P6SM SCT060
     FM101700 22017KT P6SM SKC=



000
FTUS43 KICT 091720
TAFHUT
TAF
KHUT 091720Z 0918/1018 34017G24KT P6SM OVC060
     FM100200 VRB05KT P6SM BKN070
     FM101200 21007KT P6SM SKC=



000
FTUS43 KICT 091720
TAFSLN
TAF
KSLN 091720Z 0918/1018 34017G24KT P6SM SCT070
     FM100200 VRB05KT P6SM BKN060
     FM101400 21007KT P6SM SKC=



000
FTUS43 KICT 091720
TAFRSL
TAF
KRSL 091720Z 0918/1018 34014KT P6SM OVC060
     FM100200 VRB06KT P6SM BKN080
     FM101100 24008KT P6SM SKC=



000
FTUS43 KICT 091720
TAFRSL
TAF
KRSL 091720Z 0918/1018 34014KT P6SM OVC060
     FM100200 VRB06KT P6SM BKN080
     FM101100 24008KT P6SM SKC=



000
FTUS43 KICT 091720
TAFCNU
TAF
KCNU 091720Z 0918/1018 34017G26KT P6SM SKC
     FM100000 34011KT P6SM SKC
     FM100800 VRB04KT P6SM BKN060
     FM101500 17008KT P6SM SCT060=



000
FTUS43 KICT 091720
TAFHUT
TAF
KHUT 091720Z 0918/1018 34017G24KT P6SM OVC060
     FM100200 VRB05KT P6SM BKN070
     FM101200 21007KT P6SM SKC=



000
FTUS43 KICT 091720
TAFICT
TAF
KICT 091720Z 0918/1018 34018G25KT P6SM SCT070
     FM100300 VRB05KT P6SM SCT070
     FM101400 20008KT P6SM SKC=



000
FTUS43 KICT 091720
TAFSLN
TAF
KSLN 091720Z 0918/1018 34017G24KT P6SM SCT070
     FM100200 VRB05KT P6SM BKN060
     FM101400 21007KT P6SM SKC=



000
FTUS43 KICT 091720
TAFICT
TAF
KICT 091720Z 0918/1018 34018G25KT P6SM SCT070
     FM100300 VRB05KT P6SM SCT070
     FM101400 20008KT P6SM SKC=



000
FTUS43 KICT 091720
TAFCNU
TAF
KCNU 091720Z 0918/1018 34017G26KT P6SM SKC
     FM100000 34011KT P6SM SKC
     FM100800 VRB04KT P6SM BKN060
     FM101500 17008KT P6SM SCT060=



000
FTUS43 KICT 091129
TAFHUT
TAF
KHUT 091129Z 0912/1012 33011KT P6SM BKN070
     FM091600 34017G24KT P6SM SCT070
     FM092300 34013KT P6SM SCT070
     FM100100 34006KT P6SM SCT070
     FM100600 21005KT P6SM SCT100=



000
FTUS43 KICT 091129
TAFRSL
TAF
KRSL 091129Z 0912/1012 31009KT P6SM OVC070
     FM091600 34014G20KT P6SM BKN070
     FM092200 34009KT P6SM BKN070
     FM100200 24006KT P6SM SCT070=



000
FTUS43 KICT 091129
TAFHUT
TAF
KHUT 091129Z 0912/1012 33011KT P6SM BKN070
     FM091600 34017G24KT P6SM SCT070
     FM092300 34013KT P6SM SCT070
     FM100100 34006KT P6SM SCT070
     FM100600 21005KT P6SM SCT100=



000
FTUS43 KICT 091129
TAFCNU
TAF
KCNU 091129Z 0912/1012 32013KT P6SM FEW250
     FM091600 34019G27KT P6SM FEW250
     FM092300 33013KT P6SM FEW250
     FM100100 33007KT P6SM SCT080
     FM101000 VRB03KT P6SM BKN060=



000
FTUS43 KICT 091129
TAFICT
TAF
KICT 091129Z 0912/1012 33010KT P6SM SCT070
     FM091600 34018G25KT P6SM SCT070
     FM092300 34013KT P6SM SCT070
     FM100200 34006KT P6SM SCT070
     FM100600 20005KT P6SM SCT070=



000
FTUS43 KICT 091129
TAFSLN
TAF
KSLN 091129Z 0912/1012 32011KT P6SM SCT070
     FM091600 34017G24KT P6SM SCT070
     FM092300 34013KT P6SM BKN070
     FM100100 34007KT P6SM BKN060
     FM100400 22005KT P6SM BKN060=



000
FTUS43 KICT 091129
TAFICT
TAF
KICT 091129Z 0912/1012 33010KT P6SM SCT070
     FM091600 34018G25KT P6SM SCT070
     FM092300 34013KT P6SM SCT070
     FM100200 34006KT P6SM SCT070
     FM100600 20005KT P6SM SCT070=



    US Dept of Commerce
    National Oceanic and Atmospheric Administration
    National Weather Service
    1325 East West Highway
    Silver Spring, MD 20910
    Page Author: NWS Internet Services Team
Disclaimer
Information Quality
Credits
Glossary
Privacy Policy
Freedom of Information Act (FOIA)
About Us
Career Opportunities